To NAV CANADA Home Page Login to a new session Search on AWWS site Disclaimer Vers la page française équivalente Tips FAQ What's new on the site To the Forecasts and Observations / NOTAM section To "File a Flight Plan" website Publications and other links Update of the User's profile FIC Telephone Numbers My Weather Data Folder Route Weather Data Regional Weather Data Local Weather Data To the Forecasts and Observations / NOTAM section
Request Generated 10/19/2018 at 15:27:50 UTC . Weather information available at that time is displayed.

METAR/TAF

RED LAKE/ON    

METAR CYRL 191500Z 32010KT 270V340 15SM FEW022 SCT040 BKN240 05/00 A2963 RMK SC1SC3CI3 SLP045=
METAR CYRL 191400Z 28006KT 15SM FEW022 BKN040 BKN240 04/00 A2961 RMK SC2SC3CI2 SLP041=
METAR CYRL 191300Z 31007KT 15SM SCT022 BKN220 04/M00 A2960 RMK SC3CI2 SLP036=

TAF CYRL 191345Z 1914/2002 31010KT P6SM BKN020 BKN040 TEMPO 1914/1916
SCT020 BKN040
FM191600 30015G25KT P6SM SCT020 BKN040 TEMPO 1916/1921 P6SM -SHRA
BKN020 OVC040
FM192100 30015G25KT P6SM SCT020 BKN040 TEMPO 1921/2002 3SM
-SHRASN BKN020 OVC040
RMK NXT FCST BY 192000Z=
Your time UTC time
Weather data provided by Environment Canada and NAV CANADA